sensor_id;sensor_type;location;lat;lon;timestamp;pressure;altitude;pressure_sealevel;temperature;humidity
5062;BME280;2351;50.812;12.872;2022-10-17T00:02:21;98497.44;;;11.80;100.00
5062;BME280;2351;50.812;12.872;2022-10-17T00:04:54;98503.09;;;11.75;100.00
5062;BME280;2351;50.812;12.872;2022-10-17T00:07:26;98500.84;;;11.70;100.00
5062;BME280;2351;50.812;12.872;2022-10-17T00:09:58;98504.94;;;11.63;100.00
5062;BME280;2351;50.812;12.872;2022-10-17T00:12:30;98513.78;;;11.52;100.00
5062;BME280;2351;50.812;12.872;2022-10-17T00:15:02;98505.63;;;11.44;100.00
5062;BME280;2351;50.812;12.872;2022-10-17T00:17:34;98508.75;;;11.38;100.00
5062;BME280;2351;50.812;12.872;2022-10-17T00:20:10;98518.75;;;11.34;100.00
5062;BME280;2351;50.812;12.872;2022-10-17T00:22:41;98518.28;;;11.29;100.00
5062;BME280;2351;50.812;12.872;2022-10-17T00:25:13;98521.03;;;11.27;100.00
5062;BME280;2351;50.812;12.872;2022-10-17T00:27:45;98515.16;;;11.24;100.00
5062;BME280;2351;50.812;12.872;2022-10-17T00:30:17;98520.69;;;11.21;100.00
5062;BME280;2351;50.812;12.872;2022-10-17T00:32:48;98529.13;;;11.14;100.00
5062;BME280;2351;50.812;12.872;2022-10-17T00:35:21;98530.59;;;11.07;100.00
5062;BME280;2351;50.812;12.872;2022-10-17T00:37:53;98525.53;;;11.04;100.00
5062;BME280;2351;50.812;12.872;2022-10-17T00:40:24;98529.97;;;11.04;100.00
5062;BME280;2351;50.812;12.872;2022-10-17T00:42:56;98520.47;;;11.01;100.00
5062;BME280;2351;50.812;12.872;2022-10-17T00:45:29;98523.34;;;10.98;100.00
5062;BME280;2351;50.812;12.872;2022-10-17T00:48:04;98521.66;;;10.97;100.00
5062;BME280;2351;50.812;12.872;2022-10-17T00:50:43;98516.13;;;11.00;100.00
5062;BME280;2351;50.812;12.872;2022-10-17T00:53:17;98516.13;;;11.00;100.00
5062;BME280;2351;50.812;12.872;2022-10-17T00:55:50;98522.16;;;11.02;100.00
5062;BME280;2351;50.812;12.872;2022-10-17T00:58:23;98521.31;;;11.02;100.00
5062;BME280;2351;50.812;12.872;2022-10-17T01:00:54;98520.72;;;10.98;100.00
5062;BME280;2351;50.812;12.872;2022-10-17T01:03:26;98519.25;;;10.94;100.00
5062;BME280;2351;50.812;12.872;2022-10-17T01:05:59;98527.47;;;10.91;100.00
5062;BME280;2351;50.812;12.872;2022-10-17T01:08:30;98526.13;;;10.85;100.00
5062;BME280;2351;50.812;12.872;2022-10-17T01:11:12;98532.66;;;10.81;100.00
5062;BME280;2351;50.812;12.872;2022-10-17T01:13:53;98530.22;;;10.78;100.00
5062;BME280;2351;50.812;12.872;2022-10-17T01:16:35;98521.56;;;10.76;100.00
5062;BME280;2351;50.812;12.872;2022-10-17T01:19:32;98524.31;;;10.74;100.00
5062;BME280;2351;50.812;12.872;2022-10-17T01:22:08;98530.69;;;10.72;100.00
5062;BME280;2351;50.812;12.872;2022-10-17T01:24:59;98532.63;;;10.69;100.00
5062;BME280;2351;50.812;12.872;2022-10-17T01:28:09;98532.03;;;10.66;100.00
5062;BME280;2351;50.812;12.872;2022-10-17T01:31:10;98533.31;;;10.60;100.00
5062;BME280;2351;50.812;12.872;2022-10-17T01:33:47;98533.69;;;10.55;100.00
5062;BME280;2351;50.812;12.872;2022-10-17T01:36:35;98531.38;;;10.51;100.00
5062;BME280;2351;50.812;12.872;2022-10-17T01:39:13;98537.03;;;10.46;100.00
5062;BME280;2351;50.812;12.872;2022-10-17T01:41:49;98522.22;;;10.44;100.00
5062;BME280;2351;50.812;12.872;2022-10-17T01:44:26;98528.59;;;10.41;100.00
5062;BME280;2351;50.812;12.872;2022-10-17T01:47:04;98519.94;;;10.39;100.00
5062;BME280;2351;50.812;12.872;2022-10-17T01:49:38;98525.22;;;10.39;100.00
5062;BME280;2351;50.812;12.872;2022-10-17T01:52:14;98519.94;;;10.39;100.00
5062;BME280;2351;50.812;12.872;2022-10-17T01:54:52;98518.22;;;10.38;100.00
5062;BME280;2351;50.812;12.872;2022-10-17T01:57:28;98516.53;;;10.37;100.00
5062;BME280;2351;50.812;12.872;2022-10-17T02:00:03;98515.06;;;10.33;100.00
5062;BME280;2351;50.812;12.872;2022-10-17T02:02:39;98515.19;;;10.31;100.00
5062;BME280;2351;50.812;12.872;2022-10-17T02:05:11;98510.88;;;10.30;100.00
5062;BME280;2351;50.812;12.872;2022-10-17T02:07:43;98510.00;;;10.30;100.00
5062;BME280;2351;50.812;12.872;2022-10-17T02:10:20;98510.13;;;10.28;100.00
5062;BME280;2351;50.812;12.872;2022-10-17T02:13:01;98504.13;;;10.26;100.00
5062;BME280;2351;50.812;12.872;2022-10-17T02:15:54;98508.69;;;10.24;100.00
5062;BME280;2351;50.812;12.872;2022-10-17T02:18:46;98509.03;;;10.19;100.00
5062;BME280;2351;50.812;12.872;2022-10-17T02:21:27;98505.88;;;10.14;100.00
5062;BME280;2351;50.812;12.872;2022-10-17T02:24:06;98503.47;;;10.11;100.00
5062;BME280;2351;50.812;12.872;2022-10-17T02:26:44;98514.06;;;10.11;100.00
5062;BME280;2351;50.812;12.872;2022-10-17T02:29:21;98501.69;;;10.12;100.00
5062;BME280;2351;50.812;12.872;2022-10-17T02:31:58;98507.81;;;10.12;100.00
5062;BME280;2351;50.812;12.872;2022-10-17T02:34:37;98506.34;;;10.08;100.00
5062;BME280;2351;50.812;12.872;2022-10-17T02:37:14;98504.78;;;10.05;100.00
5062;BME280;2351;50.812;12.872;2022-10-17T02:39:48;98499.84;;;10.01;100.00
5062;BME280;2351;50.812;12.872;2022-10-17T02:42:22;98505.38;;;9.98;100.00
5062;BME280;2351;50.812;12.872;2022-10-17T02:44:58;98505.59;;;9.94;100.00
5062;BME280;2351;50.812;12.872;2022-10-17T02:47:33;98495.38;;;9.90;100.00
5062;BME280;2351;50.812;12.872;2022-10-17T02:50:09;98506.16;;;9.87;100.00
5062;BME280;2351;50.812;12.872;2022-10-17T02:52:45;98507.13;;;9.86;100.00
5062;BME280;2351;50.812;12.872;2022-10-17T02:55:23;98512.50;;;9.84;100.00
5062;BME280;2351;50.812;12.872;2022-10-17T02:57:59;98513.47;;;9.83;100.00
5062;BME280;2351;50.812;12.872;2022-10-17T03:00:34;98514.41;;;9.82;100.00
5062;BME280;2351;50.812;12.872;2022-10-17T03:03:18;98516.00;;;9.85;100.00
5062;BME280;2351;50.812;12.872;2022-10-17T03:05:51;98514.31;;;9.84;100.00
5062;BME280;2351;50.812;12.872;2022-10-17T03:08:23;98524.91;;;9.84;100.00
5062;BME280;2351;50.812;12.872;2022-10-17T03:10:55;98523.34;;;9.81;100.00
5062;BME280;2351;50.812;12.872;2022-10-17T03:13:26;98517.53;;;9.76;100.00
5062;BME280;2351;50.812;12.872;2022-10-17T03:15:58;98523.78;;;9.75;100.00
5062;BME280;2351;50.812;12.872;2022-10-17T03:18:29;98523.03;;;9.73;100.00
5062;BME280;2351;50.812;12.872;2022-10-17T03:21:02;98523.88;;;9.73;100.00
5062;BME280;2351;50.812;12.872;2022-10-17T03:23:34;98516.06;;;9.72;100.00
5062;BME280;2351;50.812;12.872;2022-10-17T03:26:06;98518.94;;;9.69;100.00
5062;BME280;2351;50.812;12.872;2022-10-17T03:28:38;98521.56;;;9.69;100.00
5062;BME280;2351;50.812;12.872;2022-10-17T03:31:11;98527.72;;;9.69;100.00
5062;BME280;2351;50.812;12.872;2022-10-17T03:33:43;98530.22;;;9.71;100.00
5062;BME280;2351;50.812;12.872;2022-10-17T03:36:17;98530.97;;;9.73;100.00
5062;BME280;2351;50.812;12.872;2022-10-17T03:38:52;98531.56;;;9.76;100.00
5062;BME280;2351;50.812;12.872;2022-10-17T03:41:24;98526.41;;;9.75;100.00
5062;BME280;2351;50.812;12.872;2022-10-17T03:43:55;98546.69;;;9.74;100.00
5062;BME280;2351;50.812;12.872;2022-10-17T03:46:27;98541.53;;;9.73;100.00
5062;BME280;2351;50.812;12.872;2022-10-17T03:48:58;98533.63;;;9.73;100.00
5062;BME280;2351;50.812;12.872;2022-10-17T03:51:33;98545.38;;;9.69;100.00
5062;BME280;2351;50.812;12.872;2022-10-17T03:54:04;98547.69;;;9.60;100.00
5062;BME280;2351;50.812;12.872;2022-10-17T03:56:36;98551.56;;;9.56;100.00
5062;BME280;2351;50.812;12.872;2022-10-17T03:59:11;98549.13;;;9.53;100.00
5062;BME280;2351;50.812;12.872;2022-10-17T04:01:43;98551.03;;;9.51;100.00
5062;BME280;2351;50.812;12.872;2022-10-17T04:04:15;98545.97;;;9.48;100.00
5062;BME280;2351;50.812;12.872;2022-10-17T04:06:47;98546.19;;;9.45;100.00
5062;BME280;2351;50.812;12.872;2022-10-17T04:09:19;98552.53;;;9.42;100.00
5062;BME280;2351;50.812;12.872;2022-10-17T04:11:50;98551.91;;;9.39;100.00
5062;BME280;2351;50.812;12.872;2022-10-17T04:14:22;98555.72;;;9.34;100.00
5062;BME280;2351;50.812;12.872;2022-10-17T04:16:53;98549.81;;;9.31;100.00
5062;BME280;2351;50.812;12.872;2022-10-17T04:19:25;98555.22;;;9.29;100.00
5062;BME280;2351;50.812;12.872;2022-10-17T04:21:58;98546.34;;;9.30;100.00
5062;BME280;2351;50.812;12.872;2022-10-17T04:24:29;98556.56;;;9.35;100.00
5062;BME280;2351;50.812;12.872;2022-10-17T04:27:01;98556.22;;;9.40;100.00
5062;BME280;2351;50.812;12.872;2022-10-17T04:29:33;98555.28;;;9.41;100.00
5062;BME280;2351;50.812;12.872;2022-10-17T04:32:04;98559.81;;;9.39;100.00
5062;BME280;2351;50.812;12.872;2022-10-17T04:34:36;98567.88;;;9.37;100.00
5062;BME280;2351;50.812;12.872;2022-10-17T04:37:09;98565.56;;;9.32;100.00
5062;BME280;2351;50.812;12.872;2022-10-17T04:39:40;98565.66;;;9.31;100.00
5062;BME280;2351;50.812;12.872;2022-10-17T04:42:12;98557.84;;;9.29;100.00
5062;BME280;2351;50.812;12.872;2022-10-17T04:44:43;98564.91;;;9.29;100.00
5062;BME280;2351;50.812;12.872;2022-10-17T04:47:15;98557.13;;;9.27;100.00
5062;BME280;2351;50.812;12.872;2022-10-17T04:49:46;98557.13;;;9.27;100.00
5062;BME280;2351;50.812;12.872;2022-10-17T04:52:19;98562.72;;;9.23;100.00
5062;BME280;2351;50.812;12.872;2022-10-17T04:54:51;98565.69;;;9.18;100.00
5062;BME280;2351;50.812;12.872;2022-10-17T04:57:22;98571.09;;;9.16;100.00
5062;BME280;2351;50.812;12.872;2022-10-17T04:59:54;98565.91;;;9.15;100.00
5062;BME280;2351;50.812;12.872;2022-10-17T05:02:25;98577.31;;;9.15;100.00
5062;BME280;2351;50.812;12.872;2022-10-17T05:04:57;98577.31;;;9.15;100.00
5062;BME280;2351;50.812;12.872;2022-10-17T05:07:30;98570.34;;;9.14;100.00
5062;BME280;2351;50.812;12.872;2022-10-17T05:10:01;98573.94;;;9.13;100.00
5062;BME280;2351;50.812;12.872;2022-10-17T05:12:33;98580.28;;;9.11;100.00
5062;BME280;2351;50.812;12.872;2022-10-17T05:15:07;98573.19;;;9.11;100.00
5062;BME280;2351;50.812;12.872;2022-10-17T05:17:38;98581.13;;;9.11;100.00
5062;BME280;2351;50.812;12.872;2022-10-17T05:20:10;98584.81;;;9.09;100.00
5062;BME280;2351;50.812;12.872;2022-10-17T05:22:43;98587.69;;;9.06;100.00
5062;BME280;2351;50.812;12.872;2022-10-17T05:25:15;98589.56;;;9.03;100.00
5062;BME280;2351;50.812;12.872;2022-10-17T05:27:46;98598.38;;;9.04;100.00
5062;BME280;2351;50.812;12.872;2022-10-17T05:30:18;98595.72;;;9.04;100.00
5062;BME280;2351;50.812;12.872;2022-10-17T05:32:51;98595.59;;;9.06;100.00
5062;BME280;2351;50.812;12.872;2022-10-17T05:35:24;98606.03;;;9.07;100.00
5062;BME280;2351;50.812;12.872;2022-10-17T05:37:58;98596.97;;;9.11;100.00
5062;BME280;2351;50.812;12.872;2022-10-17T05:40:30;98601.19;;;9.14;100.00
5062;BME280;2351;50.812;12.872;2022-10-17T05:43:01;98600.97;;;9.17;100.00
5062;BME280;2351;50.812;12.872;2022-10-17T05:45:34;98604.34;;;9.19;100.00
5062;BME280;2351;50.812;12.872;2022-10-17T05:48:05;98613.97;;;9.20;100.00
5062;BME280;2351;50.812;12.872;2022-10-17T05:50:38;98609.22;;;9.25;100.00
5062;BME280;2351;50.812;12.872;2022-10-17T05:53:11;98609.94;;;9.27;100.00
5062;BME280;2351;50.812;12.872;2022-10-17T05:55:42;98616.06;;;9.28;100.00
5062;BME280;2351;50.812;12.872;2022-10-17T05:58:14;98619.56;;;9.28;100.00
5062;BME280;2351;50.812;12.872;2022-10-17T06:00:45;98624.72;;;9.30;100.00
5062;BME280;2351;50.812;12.872;2022-10-17T06:03:17;98616.78;;;9.30;100.00
5062;BME280;2351;50.812;12.872;2022-10-17T06:05:49;98623.69;;;9.32;100.00
5062;BME280;2351;50.812;12.872;2022-10-17T06:08:23;98622.63;;;9.35;100.00
5062;BME280;2351;50.812;12.872;2022-10-17T06:10:54;98628.50;;;9.39;100.00
5062;BME280;2351;50.812;12.872;2022-10-17T06:13:26;98619.34;;;9.44;100.00
5062;BME280;2351;50.812;12.872;2022-10-17T06:15:57;98623.94;;;9.54;100.00
5062;BME280;2351;50.812;12.872;2022-10-17T06:18:29;98629.72;;;9.72;100.00
5062;BME280;2351;50.812;12.872;2022-10-17T06:21:01;98625.19;;;9.98;100.00
5062;BME280;2351;50.812;12.872;2022-10-17T06:23:34;98631.06;;;10.39;100.00
5062;BME280;2351;50.812;12.872;2022-10-17T06:26:06;98624.50;;;11.03;100.00
5062;BME280;2351;50.812;12.872;2022-10-17T06:28:38;98635.06;;;11.83;100.00
5062;BME280;2351;50.812;12.872;2022-10-17T06:31:12;98635.31;;;12.68;100.00
5062;BME280;2351;50.812;12.872;2022-10-17T06:33:44;98636.94;;;13.53;100.00
5062;BME280;2351;50.812;12.872;2022-10-17T06:36:16;98639.47;;;14.35;100.00
5062;BME280;2351;50.812;12.872;2022-10-17T06:38:49;98635.22;;;15.01;100.00
5062;BME280;2351;50.812;12.872;2022-10-17T06:41:20;98635.94;;;15.51;100.00
5062;BME280;2351;50.812;12.872;2022-10-17T06:43:52;98626.47;;;15.94;100.00
5062;BME280;2351;50.812;12.872;2022-10-17T06:46:24;98632.22;;;16.54;100.00
5062;BME280;2351;50.812;12.872;2022-10-17T06:48:56;98635.72;;;17.17;100.00
5062;BME280;2351;50.812;12.872;2022-10-17T06:51:27;98625.59;;;17.72;100.00
5062;BME280;2351;50.812;12.872;2022-10-17T06:54:00;98630.09;;;18.06;98.54
5062;BME280;2351;50.812;12.872;2022-10-17T06:56:31;98632.56;;;17.99;98.85
5062;BME280;2351;50.812;12.872;2022-10-17T06:59:03;98632.75;;;17.63;98.87
5062;BME280;2351;50.812;12.872;2022-10-17T07:01:35;98645.56;;;17.16;98.38
5062;BME280;2351;50.812;12.872;2022-10-17T07:04:06;98639.81;;;16.67;98.13
5062;BME280;2351;50.812;12.872;2022-10-17T07:06:38;98649.81;;;16.29;98.20
5062;BME280;2351;50.812;12.872;2022-10-17T07:09:11;98647.06;;;16.02;98.91
5062;BME280;2351;50.812;12.872;2022-10-17T07:11:42;98647.13;;;15.92;99.28
5062;BME280;2351;50.812;12.872;2022-10-17T07:14:14;98643.59;;;15.92;99.50
5062;BME280;2351;50.812;12.872;2022-10-17T07:16:45;98650.47;;;15.94;99.89
5062;BME280;2351;50.812;12.872;2022-10-17T07:19:17;98658.44;;;16.04;100.00
5062;BME280;2351;50.812;12.872;2022-10-17T07:21:48;98656.00;;;16.11;100.00
5062;BME280;2351;50.812;12.872;2022-10-17T07:24:21;98658.88;;;16.00;98.73
5062;BME280;2351;50.812;12.872;2022-10-17T07:26:53;98653.31;;;15.83;97.33
5062;BME280;2351;50.812;12.872;2022-10-17T07:29:24;98654.97;;;15.66;96.41
5062;BME280;2351;50.812;12.872;2022-10-17T07:31:56;98662.00;;;15.57;96.12
5062;BME280;2351;50.812;12.872;2022-10-17T07:34:28;98654.09;;;15.65;96.63
5062;BME280;2351;50.812;12.872;2022-10-17T07:37:01;98660.22;;;15.86;96.60
5062;BME280;2351;50.812;12.872;2022-10-17T07:39:34;98657.09;;;15.90;94.05
5062;BME280;2351;50.812;12.872;2022-10-17T07:42:06;98658.09;;;15.89;94.91
5062;BME280;2351;50.812;12.872;2022-10-17T07:44:38;98668.06;;;15.87;94.25
5062;BME280;2351;50.812;12.872;2022-10-17T07:47:10;98652.06;;;15.87;94.25
5062;BME280;2351;50.812;12.872;2022-10-17T07:49:41;98662.44;;;15.90;93.91
5062;BME280;2351;50.812;12.872;2022-10-17T07:52:15;98652.53;;;16.01;95.08
5062;BME280;2351;50.812;12.872;2022-10-17T07:54:48;98649.22;;;16.35;96.66
5062;BME280;2351;50.812;12.872;2022-10-17T07:57:20;98657.59;;;16.76;96.59
5062;BME280;2351;50.812;12.872;2022-10-17T07:59:51;98651.19;;;17.05;96.17
5062;BME280;2351;50.812;12.872;2022-10-17T08:02:25;98655.16;;;17.27;95.42
5062;BME280;2351;50.812;12.872;2022-10-17T08:04:56;98653.34;;;17.36;94.58
5062;BME280;2351;50.812;12.872;2022-10-17T08:07:29;98653.34;;;17.36;94.31
5062;BME280;2351;50.812;12.872;2022-10-17T08:10:02;98650.00;;;17.60;95.40
5062;BME280;2351;50.812;12.872;2022-10-17T08:12:34;98658.34;;;18.00;93.62
5062;BME280;2351;50.812;12.872;2022-10-17T08:15:07;98660.28;;;18.33;90.68
5062;BME280;2351;50.812;12.872;2022-10-17T08:17:39;98662.66;;;18.44;88.62
5062;BME280;2351;50.812;12.872;2022-10-17T08:20:10;98660.28;;;18.33;85.88
5062;BME280;2351;50.812;12.872;2022-10-17T08:22:42;98656.72;;;18.08;82.19
5062;BME280;2351;50.812;12.872;2022-10-17T08:25:15;98662.81;;;17.91;84.63
5062;BME280;2351;50.812;12.872;2022-10-17T08:27:47;98661.94;;;17.83;84.70
5062;BME280;2351;50.812;12.872;2022-10-17T08:30:19;98668.97;;;17.75;85.05
5062;BME280;2351;50.812;12.872;2022-10-17T08:32:50;98667.59;;;17.71;85.18
5062;BME280;2351;50.812;12.872;2022-10-17T08:35:22;98662.56;;;17.68;85.42
5062;BME280;2351;50.812;12.872;2022-10-17T08:37:53;98666.06;;;17.69;85.39
5062;BME280;2351;50.812;12.872;2022-10-17T08:40:28;98666.91;;;17.69;84.91
5062;BME280;2351;50.812;12.872;2022-10-17T08:43:17;98659.56;;;17.71;85.43
5062;BME280;2351;50.812;12.872;2022-10-17T08:45:53;98660.59;;;17.79;85.33
5062;BME280;2351;50.812;12.872;2022-10-17T08:48:27;98662.97;;;17.90;86.39
5062;BME280;2351;50.812;12.872;2022-10-17T08:51:04;98661.41;;;18.22;88.00
5062;BME280;2351;50.812;12.872;2022-10-17T08:53:39;98657.66;;;18.74;88.45
5062;BME280;2351;50.812;12.872;2022-10-17T08:56:17;98651.75;;;19.29;87.26
5062;BME280;2351;50.812;12.872;2022-10-17T08:58:50;98656.34;;;19.68;87.05
5062;BME280;2351;50.812;12.872;2022-10-17T09:01:31;98646.69;;;19.90;86.79
5062;BME280;2351;50.812;12.872;2022-10-17T09:04:32;98658.16;;;20.15;87.08
5062;BME280;2351;50.812;12.872;2022-10-17T09:07:11;98656.97;;;20.41;87.89
5062;BME280;2351;50.812;12.872;2022-10-17T09:09:52;98662.56;;;20.63;86.57
5062;BME280;2351;50.812;12.872;2022-10-17T09:12:31;98648.31;;;20.54;76.32
5062;BME280;2351;50.812;12.872;2022-10-17T09:15:30;98650.94;;;20.62;78.32
5062;BME280;2351;50.812;12.872;2022-10-17T09:18:08;98649.94;;;21.25;80.37
5062;BME280;2351;50.812;12.872;2022-10-17T09:20:45;98652.47;;;21.72;74.71
5062;BME280;2351;50.812;12.872;2022-10-17T09:23:20;98654.69;;;21.68;72.41
5062;BME280;2351;50.812;12.872;2022-10-17T09:25:54;98645.31;;;21.49;71.21
5062;BME280;2351;50.812;12.872;2022-10-17T09:28:30;98656.16;;;21.41;72.50
5062;BME280;2351;50.812;12.872;2022-10-17T09:31:05;98652.66;;;21.40;72.72
5062;BME280;2351;50.812;12.872;2022-10-17T09:33:39;98645.59;;;21.39;72.33
5062;BME280;2351;50.812;12.872;2022-10-17T09:36:13;98647.78;;;21.35;71.47
5062;BME280;2351;50.812;12.872;2022-10-17T09:38:49;98653.94;;;21.29;71.72
5062;BME280;2351;50.812;12.872;2022-10-17T09:41:25;98649.38;;;21.30;71.67
5062;BME280;2351;50.812;12.872;2022-10-17T09:44:12;98655.78;;;21.29;71.44
5062;BME280;2351;50.812;12.872;2022-10-17T09:46:55;98661.81;;;21.31;70.74
5062;BME280;2351;50.812;12.872;2022-10-17T09:49:31;98658.25;;;21.30;69.33
5062;BME280;2351;50.812;12.872;2022-10-17T09:52:09;98656.88;;;21.34;67.96
5062;BME280;2351;50.812;12.872;2022-10-17T09:54:44;98655.50;;;21.39;68.18
5062;BME280;2351;50.812;12.872;2022-10-17T09:57:18;98660.59;;;21.48;68.28
5062;BME280;2351;50.812;12.872;2022-10-17T09:59:58;98656.06;;;21.64;68.00
5062;BME280;2351;50.812;12.872;2022-10-17T10:02:30;98653.94;;;21.74;67.96
5062;BME280;2351;50.812;12.872;2022-10-17T10:05:18;98646.81;;;21.81;67.82
5062;BME280;2351;50.812;12.872;2022-10-17T10:08:01;98645.47;;;21.92;67.80
5062;BME280;2351;50.812;12.872;2022-10-17T10:10:33;98644.34;;;22.02;67.60
5062;BME280;2351;50.812;12.872;2022-10-17T10:13:06;98644.03;;;22.11;67.54
5062;BME280;2351;50.812;12.872;2022-10-17T10:15:48;98650.78;;;22.22;67.15
5062;BME280;2351;50.812;12.872;2022-10-17T10:18:31;98655.47;;;22.35;66.81
5062;BME280;2351;50.812;12.872;2022-10-17T10:21:07;98651.69;;;22.45;66.28
5062;BME280;2351;50.812;12.872;2022-10-17T10:23:41;98653.63;;;22.51;65.84
5062;BME280;2351;50.812;12.872;2022-10-17T10:26:24;98649.31;;;22.56;65.09
5062;BME280;2351;50.812;12.872;2022-10-17T10:28:59;98645.81;;;22.63;64.66
5062;BME280;2351;50.812;12.872;2022-10-17T10:31:35;98649.03;;;22.73;64.02
5062;BME280;2351;50.812;12.872;2022-10-17T10:34:15;98642.25;;;22.77;63.07
5062;BME280;2351;50.812;12.872;2022-10-17T10:36:54;98640.19;;;22.79;62.46
5062;BME280;2351;50.812;12.872;2022-10-17T10:39:33;98643.19;;;22.91;62.26
5062;BME280;2351;50.812;12.872;2022-10-17T10:42:17;98643.28;;;23.05;62.09
5062;BME280;2351;50.812;12.872;2022-10-17T10:44:51;98639.84;;;23.17;61.41
5062;BME280;2351;50.812;12.872;2022-10-17T10:47:26;98634.38;;;23.33;61.32
5062;BME280;2351;50.812;12.872;2022-10-17T10:50:20;98637.34;;;23.44;60.83
5062;BME280;2351;50.812;12.872;2022-10-17T10:53:09;98625.72;;;23.51;59.92
5062;BME280;2351;50.812;12.872;2022-10-17T10:55:46;98620.81;;;23.61;59.37
5062;BME280;2351;50.812;12.872;2022-10-17T10:58:26;98621.09;;;23.80;59.38
5062;BME280;2351;50.812;12.872;2022-10-17T11:01:04;98623.44;;;23.96;59.17
5062;BME280;2351;50.812;12.872;2022-10-17T11:03:40;98618.94;;;24.03;57.16
5062;BME280;2351;50.812;12.872;2022-10-17T11:06:15;98613.13;;;24.06;54.94
5062;BME280;2351;50.812;12.872;2022-10-17T11:08:51;98616.69;;;24.27;55.52
5062;BME280;2351;50.812;12.872;2022-10-17T11:11:27;98613.59;;;24.44;53.95
5062;BME280;2351;50.812;12.872;2022-10-17T11:14:03;98611.75;;;24.64;53.80
5062;BME280;2351;50.812;12.872;2022-10-17T11:16:38;98604.94;;;24.82;53.30
5062;BME280;2351;50.812;12.872;2022-10-17T11:19:16;98602.84;;;24.98;51.54
5062;BME280;2351;50.812;12.872;2022-10-17T11:22:13;98597.38;;;25.24;51.61
5062;BME280;2351;50.812;12.872;2022-10-17T11:24:51;98596.72;;;25.42;50.59
5062;BME280;2351;50.812;12.872;2022-10-17T11:27:27;98585.25;;;25.54;49.38
5062;BME280;2351;50.812;12.872;2022-10-17T11:29:59;98591.88;;;25.65;48.06
5062;BME280;2351;50.812;12.872;2022-10-17T11:32:36;98578.88;;;25.80;47.62
5062;BME280;2351;50.812;12.872;2022-10-17T11:35:17;98573.38;;;25.94;46.81
5062;BME280;2351;50.812;12.872;2022-10-17T11:37:54;98574.56;;;26.05;45.93
5062;BME280;2351;50.812;12.872;2022-10-17T11:40:30;98575.16;;;26.07;44.88
5062;BME280;2351;50.812;12.872;2022-10-17T11:43:10;98568.09;;;26.12;43.96
5062;BME280;2351;50.812;12.872;2022-10-17T11:45:46;98575.34;;;26.19;42.86
5062;BME280;2351;50.812;12.872;2022-10-17T11:48:21;98571.56;;;26.20;42.41
5062;BME280;2351;50.812;12.872;2022-10-17T11:50:59;98572.16;;;26.28;42.22
5062;BME280;2351;50.812;12.872;2022-10-17T11:53:44;98568.19;;;26.31;41.53
5062;BME280;2351;50.812;12.872;2022-10-17T11:56:23;98562.31;;;26.34;41.24
5062;BME280;2351;50.812;12.872;2022-10-17T11:59:09;98567.28;;;26.37;40.80
5062;BME280;2351;50.812;12.872;2022-10-17T12:01:48;98567.69;;;26.41;40.62
5062;BME280;2351;50.812;12.872;2022-10-17T12:04:33;98563.25;;;26.21;38.03
5062;BME280;2351;50.812;12.872;2022-10-17T12:07:16;98566.28;;;26.31;38.72
5062;BME280;2351;50.812;12.872;2022-10-17T12:09:53;98555.84;;;26.35;38.79
5062;BME280;2351;50.812;12.872;2022-10-17T12:12:29;98547.84;;;26.40;39.04
5062;BME280;2351;50.812;12.872;2022-10-17T12:15:29;98557.03;;;26.39;38.19
5062;BME280;2351;50.812;12.872;2022-10-17T12:18:02;98554.94;;;26.41;38.13
5062;BME280;2351;50.812;12.872;2022-10-17T12:20:35;98549.94;;;26.45;38.01
5062;BME280;2351;50.812;12.872;2022-10-17T12:23:22;98548.19;;;26.51;37.94
5062;BME280;2351;50.812;12.872;2022-10-17T12:25:58;98547.59;;;26.49;37.61
5062;BME280;2351;50.812;12.872;2022-10-17T12:28:31;98540.88;;;26.51;37.51
5062;BME280;2351;50.812;12.872;2022-10-17T12:31:08;98543.38;;;26.53;36.64
5062;BME280;2351;50.812;12.872;2022-10-17T12:33:48;98543.38;;;26.53;36.84
5062;BME280;2351;50.812;12.872;2022-10-17T12:36:45;98542.53;;;26.52;35.95
5062;BME280;2351;50.812;12.872;2022-10-17T12:39:51;98540.66;;;26.53;35.52
5062;BME280;2351;50.812;12.872;2022-10-17T12:42:44;98543.16;;;26.54;35.51
5062;BME280;2351;50.812;12.872;2022-10-17T12:51:20;98533.19;;;26.73;35.48
5062;BME280;2351;50.812;12.872;2022-10-17T12:53:56;98532.94;;;26.75;35.59
5062;BME280;2351;50.812;12.872;2022-10-17T12:56:34;98537.72;;;26.80;35.79
5062;BME280;2351;50.812;12.872;2022-10-17T12:59:08;98530.81;;;26.84;35.47
5062;BME280;2351;50.812;12.872;2022-10-17T13:01:45;98526.16;;;26.91;35.61
5062;BME280;2351;50.812;12.872;2022-10-17T13:04:18;98525.88;;;26.99;35.64
5062;BME280;2351;50.812;12.872;2022-10-17T13:06:52;98530.00;;;27.02;35.60
5062;BME280;2351;50.812;12.872;2022-10-17T13:09:26;98530.38;;;27.05;35.44
5062;BME280;2351;50.812;12.872;2022-10-17T13:12:01;98528.25;;;27.08;34.75
5062;BME280;2351;50.812;12.872;2022-10-17T13:14:33;98532.88;;;27.07;35.01
5062;BME280;2351;50.812;12.872;2022-10-17T13:17:11;98534.31;;;27.10;34.98
5062;BME280;2351;50.812;12.872;2022-10-17T13:19:50;98540.78;;;27.09;35.08
5062;BME280;2351;50.812;12.872;2022-10-17T13:22:24;98538.31;;;27.07;35.20
5062;BME280;2351;50.812;12.872;2022-10-17T13:25:06;98533.41;;;26.97;35.03
5062;BME280;2351;50.812;12.872;2022-10-17T13:27:39;98527.19;;;26.90;35.17
5062;BME280;2351;50.812;12.872;2022-10-17T13:30:24;98529.31;;;26.88;35.06
5062;BME280;2351;50.812;12.872;2022-10-17T13:32:56;98538.56;;;26.80;35.19
5062;BME280;2351;50.812;12.872;2022-10-17T13:35:29;98542.81;;;26.69;35.09
5062;BME280;2351;50.812;12.872;2022-10-17T13:38:04;98539.19;;;26.57;35.42
5062;BME280;2351;50.812;12.872;2022-10-17T13:40:39;98543.44;;;26.46;35.48
5062;BME280;2351;50.812;12.872;2022-10-17T13:43:16;98539.34;;;26.37;35.69
5062;BME280;2351;50.812;12.872;2022-10-17T13:45:51;98548.13;;;26.32;35.96
5062;BME280;2351;50.812;12.872;2022-10-17T13:48:25;98545.88;;;26.29;36.51
5062;BME280;2351;50.812;12.872;2022-10-17T13:50:59;98538.97;;;26.26;36.52
5062;BME280;2351;50.812;12.872;2022-10-17T13:53:33;98545.69;;;26.24;36.84
5062;BME280;2351;50.812;12.872;2022-10-17T13:56:16;98541.91;;;26.25;37.08
5062;BME280;2351;50.812;12.872;2022-10-17T13:58:50;98540.22;;;26.30;37.34